sensor_id;sensor_type;location;lat;lon;timestamp;P1;durP1;ratioP1;P2;durP2;ratioP2
46721;SDS011;32455;43.430;23.136;2024-03-02T00:01:25;50.45;;;30.17;;
46721;SDS011;32455;43.430;23.136;2024-03-02T00:04:10;50.83;;;31.45;;
46721;SDS011;32455;43.430;23.136;2024-03-02T00:06:55;57.03;;;30.83;;
46721;SDS011;32455;43.430;23.136;2024-03-02T00:09:40;58.65;;;31.45;;
46721;SDS011;32455;43.430;23.136;2024-03-02T00:12:25;85.30;;;57.10;;
46721;SDS011;32455;43.430;23.136;2024-03-02T00:15:35;65.00;;;38.58;;
46721;SDS011;32455;43.430;23.136;2024-03-02T00:18:24;55.38;;;31.30;;
46721;SDS011;32455;43.430;23.136;2024-03-02T00:21:09;56.83;;;30.20;;
46721;SDS011;32455;43.430;23.136;2024-03-02T00:23:55;51.45;;;30.58;;
46721;SDS011;32455;43.430;23.136;2024-03-02T00:26:40;46.83;;;28.90;;
46721;SDS011;32455;43.430;23.136;2024-03-02T00:29:29;55.90;;;31.17;;
46721;SDS011;32455;43.430;23.136;2024-03-02T00:32:14;61.42;;;32.25;;
46721;SDS011;32455;43.430;23.136;2024-03-02T00:35:00;64.00;;;30.52;;
46721;SDS011;32455;43.430;23.136;2024-03-02T00:37:46;57.40;;;30.92;;
46721;SDS011;32455;43.430;23.136;2024-03-02T00:40:30;50.65;;;30.08;;
46721;SDS011;32455;43.430;23.136;2024-03-02T00:43:38;56.90;;;30.80;;
46721;SDS011;32455;43.430;23.136;2024-03-02T00:46:21;52.88;;;29.75;;
46721;SDS011;32455;43.430;23.136;2024-03-02T00:51:56;53.90;;;29.83;;
46721;SDS011;32455;43.430;23.136;2024-03-02T00:54:41;47.55;;;27.33;;
46721;SDS011;32455;43.430;23.136;2024-03-02T00:57:27;51.13;;;28.48;;
46721;SDS011;32455;43.430;23.136;2024-03-02T01:00:14;64.00;;;28.85;;
46721;SDS011;32455;43.430;23.136;2024-03-02T01:03:00;56.38;;;27.58;;
46721;SDS011;32455;43.430;23.136;2024-03-02T01:05:45;56.13;;;28.02;;
46721;SDS011;32455;43.430;23.136;2024-03-02T01:10:04;53.00;;;26.23;;
46721;SDS011;32455;43.430;23.136;2024-03-02T01:12:50;54.47;;;28.17;;
46721;SDS011;32455;43.430;23.136;2024-03-02T01:15:35;66.75;;;29.05;;
46721;SDS011;32455;43.430;23.136;2024-03-02T01:18:21;54.13;;;28.30;;
46721;SDS011;32455;43.430;23.136;2024-03-02T01:21:07;77.50;;;47.63;;
46721;SDS011;32455;43.430;23.136;2024-03-02T01:23:53;56.75;;;32.50;;
46721;SDS011;32455;43.430;23.136;2024-03-02T01:26:38;56.63;;;28.33;;
46721;SDS011;32455;43.430;23.136;2024-03-02T01:29:24;47.28;;;27.25;;
46721;SDS011;32455;43.430;23.136;2024-03-02T01:32:09;43.78;;;24.63;;
46721;SDS011;32455;43.430;23.136;2024-03-02T01:34:55;48.05;;;25.02;;
46721;SDS011;32455;43.430;23.136;2024-03-02T01:37:41;41.85;;;23.90;;
46721;SDS011;32455;43.430;23.136;2024-03-02T01:40:26;41.10;;;23.77;;
46721;SDS011;32455;43.430;23.136;2024-03-02T01:43:13;38.60;;;22.27;;
46721;SDS011;32455;43.430;23.136;2024-03-02T01:45:58;42.38;;;22.92;;
46721;SDS011;32455;43.430;23.136;2024-03-02T01:48:44;40.53;;;22.83;;
46721;SDS011;32455;43.430;23.136;2024-03-02T01:51:30;38.60;;;23.42;;
46721;SDS011;32455;43.430;23.136;2024-03-02T01:54:15;44.28;;;22.90;;
46721;SDS011;32455;43.430;23.136;2024-03-02T01:57:00;35.65;;;20.38;;
46721;SDS011;32455;43.430;23.136;2024-03-02T01:59:46;37.90;;;21.02;;
46721;SDS011;32455;43.430;23.136;2024-03-02T02:02:35;32.40;;;20.42;;
46721;SDS011;32455;43.430;23.136;2024-03-02T02:05:21;34.17;;;20.95;;
46721;SDS011;32455;43.430;23.136;2024-03-02T02:08:07;38.25;;;27.25;;
46721;SDS011;32455;43.430;23.136;2024-03-02T02:10:51;38.38;;;24.58;;
46721;SDS011;32455;43.430;23.136;2024-03-02T02:13:36;27.20;;;19.85;;
46721;SDS011;32455;43.430;23.136;2024-03-02T02:16:22;27.08;;;17.90;;
46721;SDS011;32455;43.430;23.136;2024-03-02T02:19:08;31.35;;;22.02;;
46721;SDS011;32455;43.430;23.136;2024-03-02T02:21:54;29.00;;;19.17;;
46721;SDS011;32455;43.430;23.136;2024-03-02T02:24:40;28.27;;;17.65;;
46721;SDS011;32455;43.430;23.136;2024-03-02T02:27:26;23.20;;;15.82;;
46721;SDS011;32455;43.430;23.136;2024-03-02T02:30:11;20.73;;;13.65;;
46721;SDS011;32455;43.430;23.136;2024-03-02T02:32:57;16.10;;;12.38;;
46721;SDS011;32455;43.430;23.136;2024-03-02T02:35:44;17.35;;;12.07;;
46721;SDS011;32455;43.430;23.136;2024-03-02T02:38:29;15.00;;;11.13;;
46721;SDS011;32455;43.430;23.136;2024-03-02T02:41:18;14.52;;;11.15;;
46721;SDS011;32455;43.430;23.136;2024-03-02T02:44:03;14.48;;;10.68;;
46721;SDS011;32455;43.430;23.136;2024-03-02T02:46:49;14.45;;;10.70;;
46721;SDS011;32455;43.430;23.136;2024-03-02T02:49:34;15.27;;;10.77;;
46721;SDS011;32455;43.430;23.136;2024-03-02T02:52:20;16.17;;;10.80;;
46721;SDS011;32455;43.430;23.136;2024-03-02T02:55:06;13.48;;;10.27;;
46721;SDS011;32455;43.430;23.136;2024-03-02T02:57:52;11.85;;;9.60;;
46721;SDS011;32455;43.430;23.136;2024-03-02T03:00:37;12.98;;;9.70;;
46721;SDS011;32455;43.430;23.136;2024-03-02T03:03:23;15.05;;;10.32;;
46721;SDS011;32455;43.430;23.136;2024-03-02T03:06:09;11.90;;;9.77;;
46721;SDS011;32455;43.430;23.136;2024-03-02T03:08:55;11.88;;;9.93;;
46721;SDS011;32455;43.430;23.136;2024-03-02T03:11:40;14.20;;;10.50;;
46721;SDS011;32455;43.430;23.136;2024-03-02T03:14:25;13.52;;;9.85;;
46721;SDS011;32455;43.430;23.136;2024-03-02T03:17:10;13.20;;;10.45;;
46721;SDS011;32455;43.430;23.136;2024-03-02T03:19:56;15.77;;;10.63;;
46721;SDS011;32455;43.430;23.136;2024-03-02T03:22:41;11.88;;;9.80;;
46721;SDS011;32455;43.430;23.136;2024-03-02T03:25:27;12.30;;;9.73;;
46721;SDS011;32455;43.430;23.136;2024-03-02T03:28:13;13.15;;;10.23;;
46721;SDS011;32455;43.430;23.136;2024-03-02T03:30:59;12.07;;;10.30;;
46721;SDS011;32455;43.430;23.136;2024-03-02T03:33:44;15.15;;;11.93;;
46721;SDS011;32455;43.430;23.136;2024-03-02T03:36:30;14.52;;;11.30;;
46721;SDS011;32455;43.430;23.136;2024-03-02T03:39:15;18.15;;;12.68;;
46721;SDS011;32455;43.430;23.136;2024-03-02T03:42:02;16.10;;;12.00;;
46721;SDS011;32455;43.430;23.136;2024-03-02T03:44:47;15.88;;;12.35;;
46721;SDS011;32455;43.430;23.136;2024-03-02T03:47:33;19.55;;;13.88;;
46721;SDS011;32455;43.430;23.136;2024-03-02T03:50:18;21.42;;;13.23;;
46721;SDS011;32455;43.430;23.136;2024-03-02T03:53:03;19.88;;;14.02;;
46721;SDS011;32455;43.430;23.136;2024-03-02T03:55:49;19.08;;;13.93;;
46721;SDS011;32455;43.430;23.136;2024-03-02T03:58:34;25.70;;;16.50;;
46721;SDS011;32455;43.430;23.136;2024-03-02T04:01:19;21.52;;;16.13;;
46721;SDS011;32455;43.430;23.136;2024-03-02T04:04:06;20.13;;;15.55;;
46721;SDS011;32455;43.430;23.136;2024-03-02T04:06:51;25.05;;;16.45;;
46721;SDS011;32455;43.430;23.136;2024-03-02T04:09:37;18.95;;;14.80;;
46721;SDS011;32455;43.430;23.136;2024-03-02T04:12:22;20.73;;;15.40;;
46721;SDS011;32455;43.430;23.136;2024-03-02T04:15:08;20.48;;;15.73;;
46721;SDS011;32455;43.430;23.136;2024-03-02T04:17:53;20.10;;;14.48;;
46721;SDS011;32455;43.430;23.136;2024-03-02T04:20:39;20.40;;;14.85;;
46721;SDS011;32455;43.430;23.136;2024-03-02T04:23:25;23.50;;;17.38;;
46721;SDS011;32455;43.430;23.136;2024-03-02T04:26:11;32.15;;;20.10;;
46721;SDS011;32455;43.430;23.136;2024-03-02T04:28:56;29.52;;;19.48;;
46721;SDS011;32455;43.430;23.136;2024-03-02T04:31:42;33.47;;;20.98;;
46721;SDS011;32455;43.430;23.136;2024-03-02T04:34:27;35.00;;;23.15;;
46721;SDS011;32455;43.430;23.136;2024-03-02T04:37:12;25.90;;;20.42;;
46721;SDS011;32455;43.430;23.136;2024-03-02T04:39:59;29.50;;;19.52;;
46721;SDS011;32455;43.430;23.136;2024-03-02T04:42:44;23.10;;;18.58;;
46721;SDS011;32455;43.430;23.136;2024-03-02T04:45:29;25.98;;;19.65;;
46721;SDS011;32455;43.430;23.136;2024-03-02T04:48:15;24.33;;;19.17;;
46721;SDS011;32455;43.430;23.136;2024-03-02T04:51:00;30.13;;;19.00;;
46721;SDS011;32455;43.430;23.136;2024-03-02T04:53:45;21.75;;;17.42;;
46721;SDS011;32455;43.430;23.136;2024-03-02T04:56:31;26.05;;;19.58;;
46721;SDS011;32455;43.430;23.136;2024-03-02T04:59:16;26.48;;;18.73;;
46721;SDS011;32455;43.430;23.136;2024-03-02T05:02:02;29.00;;;19.88;;
46721;SDS011;32455;43.430;23.136;2024-03-02T05:04:47;19.45;;;17.17;;
46721;SDS011;32455;43.430;23.136;2024-03-02T05:07:33;21.95;;;17.77;;
46721;SDS011;32455;43.430;23.136;2024-03-02T05:10:18;23.95;;;18.23;;
46721;SDS011;32455;43.430;23.136;2024-03-02T05:13:03;23.42;;;17.58;;
46721;SDS011;32455;43.430;23.136;2024-03-02T05:15:48;20.27;;;17.17;;
46721;SDS011;32455;43.430;23.136;2024-03-02T05:18:34;22.83;;;17.40;;
46721;SDS011;32455;43.430;23.136;2024-03-02T05:21:18;27.52;;;18.70;;
46721;SDS011;32455;43.430;23.136;2024-03-02T05:24:04;22.60;;;17.63;;
46721;SDS011;32455;43.430;23.136;2024-03-02T05:26:49;21.05;;;17.23;;
46721;SDS011;32455;43.430;23.136;2024-03-02T05:29:34;20.85;;;17.40;;
46721;SDS011;32455;43.430;23.136;2024-03-02T05:32:20;22.92;;;17.42;;
46721;SDS011;32455;43.430;23.136;2024-03-02T05:35:05;19.33;;;16.95;;
46721;SDS011;32455;43.430;23.136;2024-03-02T05:37:51;22.48;;;17.50;;
46721;SDS011;32455;43.430;23.136;2024-03-02T05:40:37;20.63;;;17.38;;
46721;SDS011;32455;43.430;23.136;2024-03-02T05:43:22;20.00;;;16.58;;
46721;SDS011;32455;43.430;23.136;2024-03-02T05:46:07;18.42;;;16.33;;
46721;SDS011;32455;43.430;23.136;2024-03-02T05:48:53;21.15;;;17.80;;
46721;SDS011;32455;43.430;23.136;2024-03-02T05:51:38;21.02;;;17.75;;
46721;SDS011;32455;43.430;23.136;2024-03-02T05:54:23;23.17;;;17.40;;
46721;SDS011;32455;43.430;23.136;2024-03-02T05:57:08;21.48;;;17.83;;
46721;SDS011;32455;43.430;23.136;2024-03-02T06:00:19;22.90;;;17.80;;
46721;SDS011;32455;43.430;23.136;2024-03-02T06:03:05;20.60;;;17.25;;
46721;SDS011;32455;43.430;23.136;2024-03-02T06:05:50;21.05;;;17.98;;
46721;SDS011;32455;43.430;23.136;2024-03-02T06:08:36;20.17;;;16.42;;
46721;SDS011;32455;43.430;23.136;2024-03-02T06:11:23;21.92;;;17.75;;
46721;SDS011;32455;43.430;23.136;2024-03-02T06:14:08;24.52;;;17.98;;
46721;SDS011;32455;43.430;23.136;2024-03-02T06:16:53;23.55;;;17.45;;
46721;SDS011;32455;43.430;23.136;2024-03-02T06:19:39;20.50;;;16.92;;
46721;SDS011;32455;43.430;23.136;2024-03-02T06:22:24;19.25;;;16.50;;
46721;SDS011;32455;43.430;23.136;2024-03-02T06:25:10;20.35;;;15.48;;
46721;SDS011;32455;43.430;23.136;2024-03-02T06:27:55;16.92;;;14.88;;
46721;SDS011;32455;43.430;23.136;2024-03-02T06:30:41;16.63;;;14.85;;
46721;SDS011;32455;43.430;23.136;2024-03-02T06:33:27;18.17;;;14.18;;
46721;SDS011;32455;43.430;23.136;2024-03-02T06:36:13;20.17;;;17.10;;
46721;SDS011;32455;43.430;23.136;2024-03-02T06:39:00;19.63;;;16.40;;
46721;SDS011;32455;43.430;23.136;2024-03-02T06:41:46;25.10;;;19.92;;
46721;SDS011;32455;43.430;23.136;2024-03-02T06:44:34;21.92;;;19.00;;
46721;SDS011;32455;43.430;23.136;2024-03-02T06:47:19;24.80;;;22.13;;
46721;SDS011;32455;43.430;23.136;2024-03-02T06:50:04;20.27;;;17.50;;
46721;SDS011;32455;43.430;23.136;2024-03-02T06:52:52;24.65;;;21.98;;
46721;SDS011;32455;43.430;23.136;2024-03-02T06:55:37;27.52;;;24.63;;
46721;SDS011;32455;43.430;23.136;2024-03-02T06:58:23;20.90;;;18.70;;
46721;SDS011;32455;43.430;23.136;2024-03-02T07:01:08;13.88;;;12.57;;
46721;SDS011;32455;43.430;23.136;2024-03-02T07:03:55;12.32;;;11.15;;
46721;SDS011;32455;43.430;23.136;2024-03-02T07:06:40;12.95;;;11.68;;
46721;SDS011;32455;43.430;23.136;2024-03-02T07:09:26;14.13;;;12.88;;
46721;SDS011;32455;43.430;23.136;2024-03-02T07:12:11;12.93;;;11.70;;
46721;SDS011;32455;43.430;23.136;2024-03-02T07:14:56;11.23;;;10.05;;
46721;SDS011;32455;43.430;23.136;2024-03-02T07:17:48;10.27;;;9.15;;
46721;SDS011;32455;43.430;23.136;2024-03-02T07:20:33;11.65;;;8.90;;
46721;SDS011;32455;43.430;23.136;2024-03-02T07:23:18;9.73;;;8.77;;
46721;SDS011;32455;43.430;23.136;2024-03-02T07:26:05;9.43;;;8.52;;
46721;SDS011;32455;43.430;23.136;2024-03-02T07:28:52;9.50;;;8.57;;
46721;SDS011;32455;43.430;23.136;2024-03-02T07:31:37;9.18;;;8.38;;
46721;SDS011;32455;43.430;23.136;2024-03-02T07:34:22;14.93;;;13.27;;
46721;SDS011;32455;43.430;23.136;2024-03-02T07:37:08;9.52;;;8.60;;
46721;SDS011;32455;43.430;23.136;2024-03-02T07:39:54;10.15;;;9.20;;
46721;SDS011;32455;43.430;23.136;2024-03-02T07:42:40;10.73;;;9.60;;
46721;SDS011;32455;43.430;23.136;2024-03-02T07:45:26;11.43;;;10.32;;
46721;SDS011;32455;43.430;23.136;2024-03-02T07:48:12;13.52;;;11.50;;
46721;SDS011;32455;43.430;23.136;2024-03-02T07:50:59;13.32;;;12.02;;
46721;SDS011;32455;43.430;23.136;2024-03-02T07:53:45;16.50;;;13.90;;
46721;SDS011;32455;43.430;23.136;2024-03-02T07:56:30;16.42;;;13.50;;
46721;SDS011;32455;43.430;23.136;2024-03-02T07:59:15;22.85;;;17.75;;
46721;SDS011;32455;43.430;23.136;2024-03-02T08:02:01;26.90;;;19.40;;
46721;SDS011;32455;43.430;23.136;2024-03-02T08:04:46;17.73;;;15.07;;
46721;SDS011;32455;43.430;23.136;2024-03-02T08:07:32;16.08;;;14.38;;
46721;SDS011;32455;43.430;23.136;2024-03-02T08:10:17;13.23;;;12.02;;
46721;SDS011;32455;43.430;23.136;2024-03-02T08:13:03;13.32;;;12.13;;
46721;SDS011;32455;43.430;23.136;2024-03-02T08:15:48;13.20;;;11.90;;
46721;SDS011;32455;43.430;23.136;2024-03-02T08:18:34;13.25;;;11.18;;
46721;SDS011;32455;43.430;23.136;2024-03-02T08:21:19;13.35;;;11.95;;
46721;SDS011;32455;43.430;23.136;2024-03-02T08:24:05;13.27;;;11.80;;
46721;SDS011;32455;43.430;23.136;2024-03-02T08:26:51;12.45;;;11.15;;
46721;SDS011;32455;43.430;23.136;2024-03-02T08:29:36;11.80;;;10.63;;
46721;SDS011;32455;43.430;23.136;2024-03-02T08:32:21;12.45;;;11.15;;
46721;SDS011;32455;43.430;23.136;2024-03-02T08:35:07;12.63;;;10.75;;
46721;SDS011;32455;43.430;23.136;2024-03-02T08:37:53;12.27;;;11.07;;
46721;SDS011;32455;43.430;23.136;2024-03-02T08:40:39;11.57;;;10.48;;
46721;SDS011;32455;43.430;23.136;2024-03-02T08:43:24;11.65;;;10.55;;
46721;SDS011;32455;43.430;23.136;2024-03-02T08:46:10;11.68;;;10.50;;
46721;SDS011;32455;43.430;23.136;2024-03-02T08:48:55;9.98;;;9.05;;
46721;SDS011;32455;43.430;23.136;2024-03-02T08:51:41;12.00;;;10.90;;
46721;SDS011;32455;43.430;23.136;2024-03-02T08:54:25;10.93;;;9.90;;
46721;SDS011;32455;43.430;23.136;2024-03-02T08:57:11;12.02;;;10.82;;
46721;SDS011;32455;43.430;23.136;2024-03-02T08:59:56;10.25;;;9.30;;
46721;SDS011;32455;43.430;23.136;2024-03-02T09:02:42;11.00;;;9.85;;
46721;SDS011;32455;43.430;23.136;2024-03-02T09:05:29;10.15;;;9.13;;
46721;SDS011;32455;43.430;23.136;2024-03-02T09:08:14;9.98;;;9.07;;
46721;SDS011;32455;43.430;23.136;2024-03-02T09:11:00;9.65;;;8.75;;
46721;SDS011;32455;43.430;23.136;2024-03-02T09:13:45;9.50;;;8.68;;
46721;SDS011;32455;43.430;23.136;2024-03-02T09:16:30;8.55;;;7.72;;
46721;SDS011;32455;43.430;23.136;2024-03-02T09:19:16;9.45;;;8.32;;
46721;SDS011;32455;43.430;23.136;2024-03-02T09:22:01;9.55;;;8.65;;
46721;SDS011;32455;43.430;23.136;2024-03-02T09:24:48;10.93;;;9.45;;
46721;SDS011;32455;43.430;23.136;2024-03-02T09:27:36;12.18;;;10.98;;
46721;SDS011;32455;43.430;23.136;2024-03-02T09:30:22;13.57;;;12.07;;
46721;SDS011;32455;43.430;23.136;2024-03-02T09:33:08;11.70;;;10.40;;
46721;SDS011;32455;43.430;23.136;2024-03-02T09:35:53;11.40;;;9.20;;
46721;SDS011;32455;43.430;23.136;2024-03-02T09:38:39;10.90;;;9.88;;
46721;SDS011;32455;43.430;23.136;2024-03-02T09:41:24;13.00;;;10.68;;
46721;SDS011;32455;43.430;23.136;2024-03-02T09:44:10;11.02;;;9.07;;
46721;SDS011;32455;43.430;23.136;2024-03-02T09:46:55;11.30;;;9.50;;
46721;SDS011;32455;43.430;23.136;2024-03-02T09:49:41;11.65;;;9.38;;
46721;SDS011;32455;43.430;23.136;2024-03-02T09:52:26;49.58;;;28.98;;
46721;SDS011;32455;43.430;23.136;2024-03-02T09:55:12;9.75;;;8.85;;
46721;SDS011;32455;43.430;23.136;2024-03-02T09:57:58;9.85;;;8.85;;
46721;SDS011;32455;43.430;23.136;2024-03-02T10:00:43;13.18;;;10.02;;
46721;SDS011;32455;43.430;23.136;2024-03-02T10:03:29;10.93;;;9.82;;
46721;SDS011;32455;43.430;23.136;2024-03-02T10:06:23;15.55;;;12.43;;
46721;SDS011;32455;43.430;23.136;2024-03-02T10:12:03;13.68;;;11.07;;
46721;SDS011;32455;43.430;23.136;2024-03-02T10:14:49;10.38;;;9.27;;
46721;SDS011;32455;43.430;23.136;2024-03-02T10:17:49;10.63;;;9.52;;
46721;SDS011;32455;43.430;23.136;2024-03-02T10:20:34;12.10;;;10.90;;
46721;SDS011;32455;43.430;23.136;2024-03-02T10:23:21;11.23;;;9.27;;
46721;SDS011;32455;43.430;23.136;2024-03-02T10:26:18;15.10;;;11.30;;
46721;SDS011;32455;43.430;23.136;2024-03-02T10:29:03;11.82;;;10.57;;
46721;SDS011;32455;43.430;23.136;2024-03-02T10:31:48;11.75;;;10.55;;
46721;SDS011;32455;43.430;23.136;2024-03-02T10:34:34;10.15;;;9.15;;
46721;SDS011;32455;43.430;23.136;2024-03-02T10:37:20;11.75;;;10.13;;
46721;SDS011;32455;43.430;23.136;2024-03-02T10:40:06;9.55;;;8.65;;
46721;SDS011;32455;43.430;23.136;2024-03-02T10:42:53;8.57;;;7.72;;
46721;SDS011;32455;43.430;23.136;2024-03-02T10:45:39;8.77;;;7.95;;
46721;SDS011;32455;43.430;23.136;2024-03-02T10:48:25;8.10;;;7.30;;
46721;SDS011;32455;43.430;23.136;2024-03-02T10:51:13;8.75;;;7.93;;
46721;SDS011;32455;43.430;23.136;2024-03-02T10:53:58;8.07;;;7.38;;
46721;SDS011;32455;43.430;23.136;2024-03-02T10:56:48;8.63;;;7.68;;
46721;SDS011;32455;43.430;23.136;2024-03-02T10:59:34;9.00;;;7.80;;
46721;SDS011;32455;43.430;23.136;2024-03-02T11:02:21;8.38;;;7.57;;
46721;SDS011;32455;43.430;23.136;2024-03-02T11:05:08;10.90;;;9.68;;
46721;SDS011;32455;43.430;23.136;2024-03-02T11:08:06;9.52;;;8.07;;
46721;SDS011;32455;43.430;23.136;2024-03-02T11:10:57;7.30;;;6.60;;
46721;SDS011;32455;43.430;23.136;2024-03-02T11:13:47;8.40;;;7.57;;
46721;SDS011;32455;43.430;23.136;2024-03-02T11:16:35;7.78;;;6.97;;
46721;SDS011;32455;43.430;23.136;2024-03-02T11:19:21;7.68;;;6.97;;
46721;SDS011;32455;43.430;23.136;2024-03-02T11:22:08;6.68;;;5.60;;
46721;SDS011;32455;43.430;23.136;2024-03-02T11:24:53;8.20;;;6.10;;
46721;SDS011;32455;43.430;23.136;2024-03-02T11:33:23;5.38;;;4.90;;
46721;SDS011;32455;43.430;23.136;2024-03-02T11:36:11;6.38;;;5.25;;
46721;SDS011;32455;43.430;23.136;2024-03-02T11:38:56;6.53;;;5.93;;
46721;SDS011;32455;43.430;23.136;2024-03-02T11:41:42;7.65;;;6.85;;
46721;SDS011;32455;43.430;23.136;2024-03-02T11:44:27;7.75;;;5.38;;
46721;SDS011;32455;43.430;23.136;2024-03-02T11:47:14;6.57;;;5.40;;
46721;SDS011;32455;43.430;23.136;2024-03-02T11:50:00;6.05;;;5.45;;
46721;SDS011;32455;43.430;23.136;2024-03-02T11:52:47;5.68;;;4.82;;
46721;SDS011;32455;43.430;23.136;2024-03-02T11:55:33;5.30;;;4.80;;
46721;SDS011;32455;43.430;23.136;2024-03-02T11:58:21;5.47;;;5.07;;
46721;SDS011;32455;43.430;23.136;2024-03-02T12:01:09;5.15;;;4.75;;
46721;SDS011;32455;43.430;23.136;2024-03-02T12:03:56;4.55;;;3.65;;
46721;SDS011;32455;43.430;23.136;2024-03-02T12:06:43;5.10;;;4.60;;
46721;SDS011;32455;43.430;23.136;2024-03-02T12:09:31;6.82;;;4.07;;
46721;SDS011;32455;43.430;23.136;2024-03-02T12:12:16;5.70;;;5.10;;
46721;SDS011;32455;43.430;23.136;2024-03-02T12:15:05;5.97;;;3.30;;
46721;SDS011;32455;43.430;23.136;2024-03-02T12:17:55;4.88;;;3.97;;
46721;SDS011;32455;43.430;23.136;2024-03-02T12:20:41;4.93;;;3.72;;
46721;SDS011;32455;43.430;23.136;2024-03-02T12:23:26;4.57;;;4.10;;
46721;SDS011;32455;43.430;23.136;2024-03-02T12:26:13;3.90;;;3.60;;
46721;SDS011;32455;43.430;23.136;2024-03-02T12:28:58;6.25;;;4.00;;
46721;SDS011;32455;43.430;23.136;2024-03-02T12:31:44;4.45;;;4.05;;
46721;SDS011;32455;43.430;23.136;2024-03-02T12:34:32;9.73;;;7.43;;
46721;SDS011;32455;43.430;23.136;2024-03-02T12:37:18;5.75;;;5.13;;
46721;SDS011;32455;43.430;23.136;2024-03-02T12:40:04;4.25;;;3.85;;
46721;SDS011;32455;43.430;23.136;2024-03-02T12:42:51;7.75;;;6.95;;
46721;SDS011;32455;43.430;23.136;2024-03-02T12:45:36;4.28;;;3.88;;
46721;SDS011;32455;43.430;23.136;2024-03-02T12:48:22;3.92;;;3.63;;
46721;SDS011;32455;43.430;23.136;2024-03-02T12:51:08;3.78;;;3.47;;
46721;SDS011;32455;43.430;23.136;2024-03-02T12:53:56;5.25;;;3.38;;
46721;SDS011;32455;43.430;23.136;2024-03-02T12:56:43;3.90;;;3.60;;
46721;SDS011;32455;43.430;23.136;2024-03-02T12:59:32;4.15;;;3.75;;
46721;SDS011;32455;43.430;23.136;2024-03-02T13:02:18;3.80;;;3.50;;
46721;SDS011;32455;43.430;23.136;2024-03-02T13:05:04;3.38;;;3.10;;
46721;SDS011;32455;43.430;23.136;2024-03-02T13:07:56;4.35;;;3.50;;
46721;SDS011;32455;43.430;23.136;2024-03-02T13:10:41;7.75;;;6.65;;
46721;SDS011;32455;43.430;23.136;2024-03-02T13:13:26;9.98;;;8.43;;
46721;SDS011;32455;43.430;23.136;2024-03-02T13:16:18;8.48;;;6.55;;
46721;SDS011;32455;43.430;23.136;2024-03-02T13:19:04;8.80;;;7.63;;
46721;SDS011;32455;43.430;23.136;2024-03-02T13:22:03;11.07;;;10.00;;
46721;SDS011;32455;43.430;23.136;2024-03-02T13:24:49;5.97;;;5.35;;
46721;SDS011;32455;43.430;23.136;2024-03-02T13:27:34;3.72;;;3.42;;
46721;SDS011;32455;43.430;23.136;2024-03-02T13:30:20;2.13;;;2.03;;
46721;SDS011;32455;43.430;23.136;2024-03-02T13:33:05;3.55;;;3.25;;
46721;SDS011;32455;43.430;23.136;2024-03-02T13:35:51;6.53;;;4.65;;
46721;SDS011;32455;43.430;23.136;2024-03-02T13:38:37;3.58;;;3.28;;
46721;SDS011;32455;43.430;23.136;2024-03-02T13:41:22;2.95;;;2.75;;
46721;SDS011;32455;43.430;23.136;2024-03-02T13:44:07;3.80;;;3.15;;
46721;SDS011;32455;43.430;23.136;2024-03-02T13:46:52;3.25;;;3.03;;
46721;SDS011;32455;43.430;23.136;2024-03-02T13:49:36;7.57;;;6.78;;
46721;SDS011;32455;43.430;23.136;2024-03-02T13:52:24;5.63;;;5.10;;
46721;SDS011;32455;43.430;23.136;2024-03-02T13:55:10;3.90;;;3.50;;
46721;SDS011;32455;43.430;23.136;2024-03-02T13:57:56;4.82;;;4.32;;
46721;SDS011;32455;43.430;23.136;2024-03-02T14:00:41;3.47;;;3.17;;
46721;SDS011;32455;43.430;23.136;2024-03-02T14:03:27;4.47;;;4.07;;
46721;SDS011;32455;43.430;23.136;2024-03-02T14:06:12;2.60;;;2.40;;
46721;SDS011;32455;43.430;23.136;2024-03-02T14:08:58;2.80;;;2.60;;
46721;SDS011;32455;43.430;23.136;2024-03-02T14:11:44;12.60;;;7.35;;
46721;SDS011;32455;43.430;23.136;2024-03-02T14:14:29;5.07;;;3.97;;
46721;SDS011;32455;43.430;23.136;2024-03-02T14:17:15;3.95;;;3.13;;
46721;SDS011;32455;43.430;23.136;2024-03-02T14:20:00;3.05;;;2.85;;
46721;SDS011;32455;43.430;23.136;2024-03-02T14:22:46;2.50;;;2.30;;
46721;SDS011;32455;43.430;23.136;2024-03-02T14:25:31;1.65;;;1.50;;
46721;SDS011;32455;43.430;23.136;2024-03-02T14:28:18;3.03;;;2.47;;
46721;SDS011;32455;43.430;23.136;2024-03-02T14:31:04;4.18;;;3.78;;
46721;SDS011;32455;43.430;23.136;2024-03-02T14:33:50;3.60;;;3.30;;
46721;SDS011;32455;43.430;23.136;2024-03-02T14:36:36;1.70;;;1.60;;
46721;SDS011;32455;43.430;23.136;2024-03-02T14:39:21;2.20;;;2.00;;
46721;SDS011;32455;43.430;23.136;2024-03-02T14:42:07;3.35;;;2.05;;
46721;SDS011;32455;43.430;23.136;2024-03-02T14:44:53;2.00;;;1.75;;
46721;SDS011;32455;43.430;23.136;2024-03-02T14:47:38;4.50;;;3.22;;
46721;SDS011;32455;43.430;23.136;2024-03-02T14:50:24;6.07;;;4.22;;
46721;SDS011;32455;43.430;23.136;2024-03-02T14:53:09;4.35;;;3.92;;
46721;SDS011;32455;43.430;23.136;2024-03-02T14:55:55;3.85;;;3.30;;
46721;SDS011;32455;43.430;23.136;2024-03-02T14:58:41;6.93;;;4.60;;
46721;SDS011;32455;43.430;23.136;2024-03-02T15:01:27;5.10;;;4.63;;
46721;SDS011;32455;43.430;23.136;2024-03-02T15:04:12;2.83;;;2.58;;
46721;SDS011;32455;43.430;23.136;2024-03-02T15:06:58;2.60;;;2.40;;
46721;SDS011;32455;43.430;23.136;2024-03-02T15:09:44;2.90;;;2.70;;
46721;SDS011;32455;43.430;23.136;2024-03-02T15:12:30;3.67;;;3.38;;
46721;SDS011;32455;43.430;23.136;2024-03-02T15:15:16;3.30;;;3.10;;
46721;SDS011;32455;43.430;23.136;2024-03-02T15:18:01;4.65;;;4.10;;
46721;SDS011;32455;43.430;23.136;2024-03-02T15:20:46;3.28;;;2.97;;
46721;SDS011;32455;43.430;23.136;2024-03-02T15:23:32;3.95;;;3.60;;
46721;SDS011;32455;43.430;23.136;2024-03-02T15:26:17;3.42;;;3.13;;
46721;SDS011;32455;43.430;23.136;2024-03-02T15:29:02;3.40;;;3.10;;
46721;SDS011;32455;43.430;23.136;2024-03-02T15:31:47;4.55;;;3.33;;
46721;SDS011;32455;43.430;23.136;2024-03-02T15:34:33;3.95;;;3.65;;
46721;SDS011;32455;43.430;23.136;2024-03-02T15:37:19;4.60;;;4.20;;
46721;SDS011;32455;43.430;23.136;2024-03-02T15:40:04;3.80;;;3.38;;
46721;SDS011;32455;43.430;23.136;2024-03-02T15:42:56;4.57;;;4.13;;
46721;SDS011;32455;43.430;23.136;2024-03-02T15:45:42;4.10;;;3.72;;
46721;SDS011;32455;43.430;23.136;2024-03-02T15:48:27;3.42;;;3.13;;
46721;SDS011;32455;43.430;23.136;2024-03-02T15:51:13;3.10;;;2.80;;
46721;SDS011;32455;43.430;23.136;2024-03-02T15:53:59;4.07;;;3.78;;
46721;SDS011;32455;43.430;23.136;2024-03-02T15:56:44;4.38;;;3.75;;
46721;SDS011;32455;43.430;23.136;2024-03-02T15:59:30;5.18;;;4.53;;
46721;SDS011;32455;43.430;23.136;2024-03-02T16:02:15;6.13;;;5.35;;
46721;SDS011;32455;43.430;23.136;2024-03-02T16:05:01;2.78;;;2.58;;
46721;SDS011;32455;43.430;23.136;2024-03-02T16:07:46;3.20;;;2.90;;
46721;SDS011;32455;43.430;23.136;2024-03-02T16:10:31;3.50;;;3.20;;
46721;SDS011;32455;43.430;23.136;2024-03-02T16:13:17;4.10;;;3.60;;
46721;SDS011;32455;43.430;23.136;2024-03-02T16:16:03;8.98;;;8.07;;
46721;SDS011;32455;43.430;23.136;2024-03-02T16:18:49;6.97;;;6.30;;
46721;SDS011;32455;43.430;23.136;2024-03-02T16:21:35;13.10;;;11.18;;